Archival Weather

Chicago O'hare International

Chicago O'hare International, Illinois (KORD)

Report from: Saturday, May 14, 2022 12:51 AM CDT
Current time: Monday, May 23, 2022 4:06 AM CDT

Current weather
Weather history
Weather forecast

Temperature22.8°C (73.0°F)
Dew point13.9°C (57.0°F)
Winds Calm
Visibility10 mi. (16.1 km)
Clouds Few clouds 9,000 ft. (2,743 m)
Ceiling: Broken clouds 25,000 ft. (7,620 m)
Altimeter29.91 in.Hg (1013 mB)
Relative humidity57 %
Density altitude1,141 ft. (348 m)
Sea-level pressure101.2 kPa (1012 mB, 29.89 in.Hg)
Max temp last 6 hours30.6°C (87.1°F)
Min temp last 6 hours22.8°C (73.0°F)
Max temp last 24 hours31.7°C (89.1°F)
Min temp last 24 hours20.0°C (68.0°F)
Remarks Automated weather observing station with precipitation discriminator
Pressure rising, then falling
Flight conditions Visual Meteorological Conditions
Raw dataKORD 140551Z 00000KT 10SM FEW090 BKN250 23/14 A2991 RMK AO2 SLP123 T02280139 10306 20228 403170200 50006
An error has occurred. This application may no longer respond until reloaded. Reload 🗙